sensor_id;sensor_type;location;lat;lon;timestamp;temperature;humidity
65470;DHT22;52067;50.710;14.492;2023-08-24T00:01:58;15.52;84.26
65470;DHT22;52067;50.710;14.492;2023-08-24T00:04:23;15.55;83.56
65470;DHT22;52067;50.710;14.492;2023-08-24T00:06:48;15.08;85.25
65470;DHT22;52067;50.710;14.492;2023-08-24T00:09:14;14.97;85.72
65470;DHT22;52067;50.710;14.492;2023-08-24T00:11:40;14.80;86.64
65470;DHT22;52067;50.710;14.492;2023-08-24T00:14:05;15.01;85.74
65470;DHT22;52067;50.710;14.492;2023-08-24T00:16:31;15.11;85.34
65470;DHT22;52067;50.710;14.492;2023-08-24T00:18:56;15.27;84.80
65470;DHT22;52067;50.710;14.492;2023-08-24T00:21:21;15.44;84.32
65470;DHT22;52067;50.710;14.492;2023-08-24T00:23:48;15.51;83.95
65470;DHT22;52067;50.710;14.492;2023-08-24T00:26:13;15.58;83.51
65470;DHT22;52067;50.710;14.492;2023-08-24T00:28:41;15.58;83.36
65470;DHT22;52067;50.710;14.492;2023-08-24T00:31:07;15.63;83.17
65470;DHT22;52067;50.710;14.492;2023-08-24T00:33:32;15.61;83.04
65470;DHT22;52067;50.710;14.492;2023-08-24T00:36:00;15.62;82.95
65470;DHT22;52067;50.710;14.492;2023-08-24T00:38:26;15.58;82.94
65470;DHT22;52067;50.710;14.492;2023-08-24T00:40:51;15.61;83.05
65470;DHT22;52067;50.710;14.492;2023-08-24T00:43:18;15.61;82.55
65470;DHT22;52067;50.710;14.492;2023-08-24T00:45:47;15.30;83.65
65470;DHT22;52067;50.710;14.492;2023-08-24T00:48:12;15.37;83.69
65470;DHT22;52067;50.710;14.492;2023-08-24T00:50:37;15.44;83.26
65470;DHT22;52067;50.710;14.492;2023-08-24T00:53:03;15.32;83.13
65470;DHT22;52067;50.710;14.492;2023-08-24T00:55:28;15.14;83.84
65470;DHT22;52067;50.710;14.492;2023-08-24T00:57:53;15.17;83.92
65470;DHT22;52067;50.710;14.492;2023-08-24T01:00:20;14.87;84.59
65470;DHT22;52067;50.710;14.492;2023-08-24T01:02:46;14.87;85.17
65470;DHT22;52067;50.710;14.492;2023-08-24T01:05:12;14.46;85.80
65470;DHT22;52067;50.710;14.492;2023-08-24T01:07:38;14.51;86.15
65470;DHT22;52067;50.710;14.492;2023-08-24T01:10:04;14.29;86.14
65470;DHT22;52067;50.710;14.492;2023-08-24T01:15:17;14.39;86.80
65470;DHT22;52067;50.710;14.492;2023-08-24T01:17:44;13.80;87.47
65470;DHT22;52067;50.710;14.492;2023-08-24T01:20:10;13.91;87.57
65470;DHT22;52067;50.710;14.492;2023-08-24T01:22:58;14.14;87.63
65470;DHT22;52067;50.710;14.492;2023-08-24T01:28:08;14.28;86.90
65470;DHT22;52067;50.710;14.492;2023-08-24T01:30:34;14.41;86.54
65470;DHT22;52067;50.710;14.492;2023-08-24T01:33:02;14.25;86.29
65470;DHT22;52067;50.710;14.492;2023-08-24T01:35:27;14.33;86.47
65470;DHT22;52067;50.710;14.492;2023-08-24T01:37:52;14.33;86.36
65470;DHT22;52067;50.710;14.492;2023-08-24T01:40:23;14.48;86.21
65470;DHT22;52067;50.710;14.492;2023-08-24T01:42:57;14.55;85.67
65470;DHT22;52067;50.710;14.492;2023-08-24T01:45:24;14.52;85.50
65470;DHT22;52067;50.710;14.492;2023-08-24T01:47:52;14.46;85.44
65470;DHT22;52067;50.710;14.492;2023-08-24T01:50:19;14.51;85.35
65470;DHT22;52067;50.710;14.492;2023-08-24T01:52:44;14.45;85.42
65470;DHT22;52067;50.710;14.492;2023-08-24T01:55:10;14.52;84.98
65470;DHT22;52067;50.710;14.492;2023-08-24T01:57:36;14.28;86.09
65470;DHT22;52067;50.710;14.492;2023-08-24T02:00:02;14.38;85.33
65470;DHT22;52067;50.710;14.492;2023-08-24T02:02:31;14.39;85.35
65470;DHT22;52067;50.710;14.492;2023-08-24T02:04:58;14.32;85.17
65470;DHT22;52067;50.710;14.492;2023-08-24T02:07:23;14.38;84.91
65470;DHT22;52067;50.710;14.492;2023-08-24T02:09:48;14.38;85.06
65470;DHT22;52067;50.710;14.492;2023-08-24T02:12:13;14.45;84.93
65470;DHT22;52067;50.710;14.492;2023-08-24T02:14:39;14.32;85.12
65470;DHT22;52067;50.710;14.492;2023-08-24T02:17:04;14.25;85.46
65470;DHT22;52067;50.710;14.492;2023-08-24T02:19:29;14.08;85.82
65470;DHT22;52067;50.710;14.492;2023-08-24T02:21:54;14.22;85.56
65470;DHT22;52067;50.710;14.492;2023-08-24T02:24:20;14.22;85.24
65470;DHT22;52067;50.710;14.492;2023-08-24T02:26:45;14.17;85.25
65470;DHT22;52067;50.710;14.492;2023-08-24T02:29:10;14.22;84.91
65470;DHT22;52067;50.710;14.492;2023-08-24T02:31:35;14.12;85.29
65470;DHT22;52067;50.710;14.492;2023-08-24T02:34:01;14.01;85.56
65470;DHT22;52067;50.710;14.492;2023-08-24T02:36:27;14.17;85.07
65470;DHT22;52067;50.710;14.492;2023-08-24T02:38:53;14.01;85.16
65470;DHT22;52067;50.710;14.492;2023-08-24T02:41:19;13.88;85.93
65470;DHT22;52067;50.710;14.492;2023-08-24T02:43:44;13.95;85.85
65470;DHT22;52067;50.710;14.492;2023-08-24T02:46:09;13.93;85.57
65470;DHT22;52067;50.710;14.492;2023-08-24T02:48:35;13.94;85.35
65470;DHT22;52067;50.710;14.492;2023-08-24T02:51:01;13.94;85.24
65470;DHT22;52067;50.710;14.492;2023-08-24T02:53:28;13.98;85.20
65470;DHT22;52067;50.710;14.492;2023-08-24T02:55:54;13.85;85.66
65470;DHT22;52067;50.710;14.492;2023-08-24T02:58:19;13.91;85.62
65470;DHT22;52067;50.710;14.492;2023-08-24T03:00:44;13.88;85.62
65470;DHT22;52067;50.710;14.492;2023-08-24T03:03:10;13.78;85.74
65470;DHT22;52067;50.710;14.492;2023-08-24T03:05:35;13.85;85.54
65470;DHT22;52067;50.710;14.492;2023-08-24T03:08:01;13.90;85.35
65470;DHT22;52067;50.710;14.492;2023-08-24T03:10:26;13.66;86.22
65470;DHT22;52067;50.710;14.492;2023-08-24T03:12:51;13.43;87.06
65470;DHT22;52067;50.710;14.492;2023-08-24T03:15:17;13.50;86.32
65470;DHT22;52067;50.710;14.492;2023-08-24T03:17:42;13.40;86.86
65470;DHT22;52067;50.710;14.492;2023-08-24T03:20:07;13.47;86.74
65470;DHT22;52067;50.710;14.492;2023-08-24T03:22:33;13.62;86.36
65470;DHT22;52067;50.710;14.492;2023-08-24T03:24:59;13.64;85.95
65470;DHT22;52067;50.710;14.492;2023-08-24T03:27:24;13.70;85.99
65470;DHT22;52067;50.710;14.492;2023-08-24T03:29:51;13.64;86.04
65470;DHT22;52067;50.710;14.492;2023-08-24T03:32:17;13.74;85.34
65470;DHT22;52067;50.710;14.492;2023-08-24T03:34:42;13.56;86.05
65470;DHT22;52067;50.710;14.492;2023-08-24T03:37:07;13.62;85.79
65470;DHT22;52067;50.710;14.492;2023-08-24T03:39:32;13.64;85.61
65470;DHT22;52067;50.710;14.492;2023-08-24T03:41:58;13.56;85.54
65470;DHT22;52067;50.710;14.492;2023-08-24T03:44:23;13.63;85.65
65470;DHT22;52067;50.710;14.492;2023-08-24T03:46:48;13.42;85.98
65470;DHT22;52067;50.710;14.492;2023-08-24T03:49:13;13.38;86.14
65470;DHT22;52067;50.710;14.492;2023-08-24T03:51:39;13.44;85.99
65470;DHT22;52067;50.710;14.492;2023-08-24T03:54:04;13.54;85.57
65470;DHT22;52067;50.710;14.492;2023-08-24T03:56:30;13.18;86.67
65470;DHT22;52067;50.710;14.492;2023-08-24T03:58:56;13.20;86.37
65470;DHT22;52067;50.710;14.492;2023-08-24T04:01:21;13.29;86.13
65470;DHT22;52067;50.710;14.492;2023-08-24T04:03:47;13.29;86.48
65470;DHT22;52067;50.710;14.492;2023-08-24T04:06:12;13.14;86.65
65470;DHT22;52067;50.710;14.492;2023-08-24T04:08:37;13.20;86.75
65470;DHT22;52067;50.710;14.492;2023-08-24T04:11:03;13.22;86.54
65470;DHT22;52067;50.710;14.492;2023-08-24T04:13:28;13.22;86.31
65470;DHT22;52067;50.710;14.492;2023-08-24T04:15:53;13.27;86.45
65470;DHT22;52067;50.710;14.492;2023-08-24T04:18:19;13.35;86.06
65470;DHT22;52067;50.710;14.492;2023-08-24T04:20:44;13.47;85.73
65470;DHT22;52067;50.710;14.492;2023-08-24T04:23:09;13.42;85.89
65470;DHT22;52067;50.710;14.492;2023-08-24T04:25:38;13.22;86.32
65470;DHT22;52067;50.710;14.492;2023-08-24T04:28:04;13.29;86.45
65470;DHT22;52067;50.710;14.492;2023-08-24T04:30:29;13.43;86.09
65470;DHT22;52067;50.710;14.492;2023-08-24T04:32:54;13.35;85.94
65470;DHT22;52067;50.710;14.492;2023-08-24T04:35:20;13.22;86.50
65470;DHT22;52067;50.710;14.492;2023-08-24T04:37:45;13.35;86.13
65470;DHT22;52067;50.710;14.492;2023-08-24T04:40:10;13.46;85.80
65470;DHT22;52067;50.710;14.492;2023-08-24T04:42:36;13.53;85.65
65470;DHT22;52067;50.710;14.492;2023-08-24T04:45:01;13.63;85.55
65470;DHT22;52067;50.710;14.492;2023-08-24T04:47:26;13.73;85.34
65470;DHT22;52067;50.710;14.492;2023-08-24T04:49:52;13.29;86.96
65470;DHT22;52067;50.710;14.492;2023-08-24T04:52:17;13.53;86.86
65470;DHT22;52067;50.710;14.492;2023-08-24T04:54:42;13.64;86.66
65470;DHT22;52067;50.710;14.492;2023-08-24T04:57:08;13.36;87.64
65470;DHT22;52067;50.710;14.492;2023-08-24T04:59:33;13.49;87.50
65470;DHT22;52067;50.710;14.492;2023-08-24T05:02:02;13.81;86.67
65470;DHT22;52067;50.710;14.492;2023-08-24T05:04:27;13.93;86.10
65470;DHT22;52067;50.710;14.492;2023-08-24T05:06:52;14.08;85.79
65470;DHT22;52067;50.710;14.492;2023-08-24T05:09:17;14.22;85.78
65470;DHT22;52067;50.710;14.492;2023-08-24T05:11:43;14.25;85.65
65470;DHT22;52067;50.710;14.492;2023-08-24T05:14:08;14.42;85.38
65470;DHT22;52067;50.710;14.492;2023-08-24T05:16:34;14.46;85.20
65470;DHT22;52067;50.710;14.492;2023-08-24T05:18:59;14.53;85.43
65470;DHT22;52067;50.710;14.492;2023-08-24T05:21:24;14.72;85.15
65470;DHT22;52067;50.710;14.492;2023-08-24T05:23:49;14.80;84.42
65470;DHT22;52067;50.710;14.492;2023-08-24T05:26:15;14.87;85.01
65470;DHT22;52067;50.710;14.492;2023-08-24T05:28:47;14.81;84.79
65470;DHT22;52067;50.710;14.492;2023-08-24T05:31:12;14.93;85.16
65470;DHT22;52067;50.710;14.492;2023-08-24T05:33:37;14.97;84.79
65470;DHT22;52067;50.710;14.492;2023-08-24T05:36:03;15.17;84.80
65470;DHT22;52067;50.710;14.492;2023-08-24T05:38:28;15.45;83.96
65470;DHT22;52067;50.710;14.492;2023-08-24T05:40:53;15.63;83.73
65470;DHT22;52067;50.710;14.492;2023-08-24T05:43:19;15.58;84.48
65470;DHT22;52067;50.710;14.492;2023-08-24T05:45:45;15.57;84.98
65470;DHT22;52067;50.710;14.492;2023-08-24T05:48:11;15.57;85.51
65470;DHT22;52067;50.710;14.492;2023-08-24T05:50:37;15.63;84.41
65470;DHT22;52067;50.710;14.492;2023-08-24T05:53:03;15.78;85.05
65470;DHT22;52067;50.710;14.492;2023-08-24T05:55:28;16.09;84.17
65470;DHT22;52067;50.710;14.492;2023-08-24T05:57:53;16.13;83.19
65470;DHT22;52067;50.710;14.492;2023-08-24T06:00:19;16.28;82.64
65470;DHT22;52067;50.710;14.492;2023-08-24T06:02:45;16.34;82.67
65470;DHT22;52067;50.710;14.492;2023-08-24T06:05:10;16.50;82.52
65470;DHT22;52067;50.710;14.492;2023-08-24T06:07:36;16.53;82.27
65470;DHT22;52067;50.710;14.492;2023-08-24T06:10:02;16.71;81.86
65470;DHT22;52067;50.710;14.492;2023-08-24T06:12:27;16.72;81.73
65470;DHT22;52067;50.710;14.492;2023-08-24T06:14:52;16.96;80.79
65470;DHT22;52067;50.710;14.492;2023-08-24T06:17:18;16.84;81.67
65470;DHT22;52067;50.710;14.492;2023-08-24T06:19:43;17.06;80.70
65470;DHT22;52067;50.710;14.492;2023-08-24T06:22:08;17.30;79.96
65470;DHT22;52067;50.710;14.492;2023-08-24T06:24:34;17.51;79.28
65470;DHT22;52067;50.710;14.492;2023-08-24T06:26:59;17.55;79.31
65470;DHT22;52067;50.710;14.492;2023-08-24T06:29:25;17.69;80.80
65470;DHT22;52067;50.710;14.492;2023-08-24T06:31:50;17.70;78.92
65470;DHT22;52067;50.710;14.492;2023-08-24T06:34:15;17.71;78.24
65470;DHT22;52067;50.710;14.492;2023-08-24T06:36:40;17.81;78.44
65470;DHT22;52067;50.710;14.492;2023-08-24T06:39:05;18.05;78.15
65470;DHT22;52067;50.710;14.492;2023-08-24T06:41:34;18.26;77.33
65470;DHT22;52067;50.710;14.492;2023-08-24T06:44:00;18.42;76.51
65470;DHT22;52067;50.710;14.492;2023-08-24T06:46:25;18.38;76.10
65470;DHT22;52067;50.710;14.492;2023-08-24T06:48:50;18.64;76.14
65470;DHT22;52067;50.710;14.492;2023-08-24T06:51:16;18.69;75.06
65470;DHT22;52067;50.710;14.492;2023-08-24T06:53:41;18.91;73.94
65470;DHT22;52067;50.710;14.492;2023-08-24T06:56:07;18.96;73.61
65470;DHT22;52067;50.710;14.492;2023-08-24T06:58:33;19.14;73.68
65470;DHT22;52067;50.710;14.492;2023-08-24T07:00:59;19.32;72.79
65470;DHT22;52067;50.710;14.492;2023-08-24T07:03:24;19.38;72.10
65470;DHT22;52067;50.710;14.492;2023-08-24T07:05:49;19.52;71.08
65470;DHT22;52067;50.710;14.492;2023-08-24T07:08:15;19.70;70.87
65470;DHT22;52067;50.710;14.492;2023-08-24T07:10:40;19.80;70.45
65470;DHT22;52067;50.710;14.492;2023-08-24T07:13:07;19.96;69.61
65470;DHT22;52067;50.710;14.492;2023-08-24T07:15:32;20.21;70.18
65470;DHT22;52067;50.710;14.492;2023-08-24T07:17:59;20.18;67.92
65470;DHT22;52067;50.710;14.492;2023-08-24T07:20:24;20.47;69.98
65470;DHT22;52067;50.710;14.492;2023-08-24T07:22:50;20.75;69.71
65470;DHT22;52067;50.710;14.492;2023-08-24T07:25:15;20.65;68.90
65470;DHT22;52067;50.710;14.492;2023-08-24T07:27:41;20.78;69.92
65470;DHT22;52067;50.710;14.492;2023-08-24T07:30:06;20.91;68.78
65470;DHT22;52067;50.710;14.492;2023-08-24T07:32:32;20.88;69.78
65470;DHT22;52067;50.710;14.492;2023-08-24T07:34:58;21.13;68.52
65470;DHT22;52067;50.710;14.492;2023-08-24T07:37:28;21.30;69.59
65470;DHT22;52067;50.710;14.492;2023-08-24T07:39:53;21.60;69.05
65470;DHT22;52067;50.710;14.492;2023-08-24T07:42:19;21.78;68.76
65470;DHT22;52067;50.710;14.492;2023-08-24T07:44:45;21.82;68.75
65470;DHT22;52067;50.710;14.492;2023-08-24T07:47:11;21.95;68.03
65470;DHT22;52067;50.710;14.492;2023-08-24T07:49:36;22.08;68.30
65470;DHT22;52067;50.710;14.492;2023-08-24T07:52:01;22.22;66.80
65470;DHT22;52067;50.710;14.492;2023-08-24T07:54:26;22.32;66.60
65470;DHT22;52067;50.710;14.492;2023-08-24T07:56:52;22.32;65.34
65470;DHT22;52067;50.710;14.492;2023-08-24T07:59:17;22.26;66.90
65470;DHT22;52067;50.710;14.492;2023-08-24T08:01:42;22.42;65.26
65470;DHT22;52067;50.710;14.492;2023-08-24T08:04:08;22.66;63.82
65470;DHT22;52067;50.710;14.492;2023-08-24T08:06:33;22.96;63.45
65470;DHT22;52067;50.710;14.492;2023-08-24T08:08:59;23.07;62.16
65470;DHT22;52067;50.710;14.492;2023-08-24T08:11:24;23.34;64.76
65470;DHT22;52067;50.710;14.492;2023-08-24T08:13:49;23.41;60.56
65470;DHT22;52067;50.710;14.492;2023-08-24T08:16:14;23.46;60.47
65470;DHT22;52067;50.710;14.492;2023-08-24T08:18:40;23.55;60.38
65470;DHT22;52067;50.710;14.492;2023-08-24T08:21:23;23.72;55.45
65470;DHT22;52067;50.710;14.492;2023-08-24T08:23:48;23.59;54.99
65470;DHT22;52067;50.710;14.492;2023-08-24T08:26:14;23.73;56.72
65470;DHT22;52067;50.710;14.492;2023-08-24T08:28:39;23.83;57.57
65470;DHT22;52067;50.710;14.492;2023-08-24T08:31:05;24.13;56.70
65470;DHT22;52067;50.710;14.492;2023-08-24T08:33:31;24.31;56.42
65470;DHT22;52067;50.710;14.492;2023-08-24T08:35:56;24.18;55.63
65470;DHT22;52067;50.710;14.492;2023-08-24T08:38:21;24.13;55.70
65470;DHT22;52067;50.710;14.492;2023-08-24T08:40:50;24.33;55.05
65470;DHT22;52067;50.710;14.492;2023-08-24T08:43:16;24.37;54.13
65470;DHT22;52067;50.710;14.492;2023-08-24T08:45:41;24.72;55.36
65470;DHT22;52067;50.710;14.492;2023-08-24T08:48:06;24.79;55.39
65470;DHT22;52067;50.710;14.492;2023-08-24T08:50:33;25.03;55.21
65470;DHT22;52067;50.710;14.492;2023-08-24T08:53:00;25.18;55.17
65470;DHT22;52067;50.710;14.492;2023-08-24T08:55:25;25.22;53.99
65470;DHT22;52067;50.710;14.492;2023-08-24T08:57:51;25.47;53.23
65470;DHT22;52067;50.710;14.492;2023-08-24T09:00:18;24.83;54.06
65470;DHT22;52067;50.710;14.492;2023-08-24T09:02:44;25.26;54.45
65470;DHT22;52067;50.710;14.492;2023-08-24T09:05:10;25.59;50.43
65470;DHT22;52067;50.710;14.492;2023-08-24T09:07:36;25.88;53.29
65470;DHT22;52067;50.710;14.492;2023-08-24T09:10:04;25.97;52.13
65470;DHT22;52067;50.710;14.492;2023-08-24T09:12:31;25.95;51.61
65470;DHT22;52067;50.710;14.492;2023-08-24T09:14:57;26.12;51.16
65470;DHT22;52067;50.710;14.492;2023-08-24T09:17:22;26.25;48.71
65470;DHT22;52067;50.710;14.492;2023-08-24T09:19:49;26.32;48.85
65470;DHT22;52067;50.710;14.492;2023-08-24T09:22:14;26.69;48.39
65470;DHT22;52067;50.710;14.492;2023-08-24T09:24:39;26.66;48.21
65470;DHT22;52067;50.710;14.492;2023-08-24T09:27:13;26.79;48.74
65470;DHT22;52067;50.710;14.492;2023-08-24T09:29:39;26.88;49.17
65470;DHT22;52067;50.710;14.492;2023-08-24T09:32:07;26.57;48.75
65470;DHT22;52067;50.710;14.492;2023-08-24T09:34:32;26.98;49.12
65470;DHT22;52067;50.710;14.492;2023-08-24T09:36:57;27.03;49.60
65470;DHT22;52067;50.710;14.492;2023-08-24T09:39:23;27.30;47.32
65470;DHT22;52067;50.710;14.492;2023-08-24T09:41:49;26.79;48.13
65470;DHT22;52067;50.710;14.492;2023-08-24T09:44:14;26.91;49.13
65470;DHT22;52067;50.710;14.492;2023-08-24T09:46:42;27.23;45.82
65470;DHT22;52067;50.710;14.492;2023-08-24T09:49:08;27.32;45.70
65470;DHT22;52067;50.710;14.492;2023-08-24T09:51:34;27.17;47.48
65470;DHT22;52067;50.710;14.492;2023-08-24T09:54:00;27.10;51.08
65470;DHT22;52067;50.710;14.492;2023-08-24T09:56:28;27.41;48.54
65470;DHT22;52067;50.710;14.492;2023-08-24T09:58:54;27.83;47.65
65470;DHT22;52067;50.710;14.492;2023-08-24T10:01:19;27.99;49.52
65470;DHT22;52067;50.710;14.492;2023-08-24T10:03:45;27.62;48.64
65470;DHT22;52067;50.710;14.492;2023-08-24T10:06:11;28.00;51.16
65470;DHT22;52067;50.710;14.492;2023-08-24T10:08:39;28.36;46.30
65470;DHT22;52067;50.710;14.492;2023-08-24T10:11:07;28.74;46.97
65470;DHT22;52067;50.710;14.492;2023-08-24T10:13:36;29.15;45.66
65470;DHT22;52067;50.710;14.492;2023-08-24T10:16:04;30.47;43.10
65470;DHT22;52067;50.710;14.492;2023-08-24T10:18:30;31.01;41.62
65470;DHT22;52067;50.710;14.492;2023-08-24T10:20:55;32.53;37.16
65470;DHT22;52067;50.710;14.492;2023-08-24T10:23:21;32.98;37.38
65470;DHT22;52067;50.710;14.492;2023-08-24T10:25:47;33.91;36.26
65470;DHT22;52067;50.710;14.492;2023-08-24T10:28:14;34.10;36.16
65470;DHT22;52067;50.710;14.492;2023-08-24T10:30:41;34.55;35.70
65470;DHT22;52067;50.710;14.492;2023-08-24T10:33:08;33.27;36.22
65470;DHT22;52067;50.710;14.492;2023-08-24T10:35:36;34.17;33.35
65470;DHT22;52067;50.710;14.492;2023-08-24T10:38:01;32.38;35.83
65470;DHT22;52067;50.710;14.492;2023-08-24T10:40:47;32.81;35.64
65470;DHT22;52067;50.710;14.492;2023-08-24T10:43:12;32.26;36.38
65470;DHT22;52067;50.710;14.492;2023-08-24T10:45:53;33.91;32.89
65470;DHT22;52067;50.710;14.492;2023-08-24T10:48:18;34.00;33.26
65470;DHT22;52067;50.710;14.492;2023-08-24T10:50:59;33.70;34.17
65470;DHT22;52067;50.710;14.492;2023-08-24T10:53:38;34.65;32.46
65470;DHT22;52067;50.710;14.492;2023-08-24T10:56:10;34.65;32.38
65470;DHT22;52067;50.710;14.492;2023-08-24T10:58:36;34.73;34.35
65470;DHT22;52067;50.710;14.492;2023-08-24T11:01:02;34.08;34.12
65470;DHT22;52067;50.710;14.492;2023-08-24T11:03:31;33.05;34.68
65470;DHT22;52067;50.710;14.492;2023-08-24T11:05:57;32.68;34.26
65470;DHT22;52067;50.710;14.492;2023-08-24T11:08:22;32.89;36.17
65470;DHT22;52067;50.710;14.492;2023-08-24T11:11:17;32.99;37.60
65470;DHT22;52067;50.710;14.492;2023-08-24T11:14:12;33.26;34.60
65470;DHT22;52067;50.710;14.492;2023-08-24T11:16:44;33.49;33.38
65470;DHT22;52067;50.710;14.492;2023-08-24T11:19:13;33.54;32.88
65470;DHT22;52067;50.710;14.492;2023-08-24T11:21:39;32.45;35.04
65470;DHT22;52067;50.710;14.492;2023-08-24T11:24:04;32.09;36.89
65470;DHT22;52067;50.710;14.492;2023-08-24T11:26:30;33.33;33.99
65470;DHT22;52067;50.710;14.492;2023-08-24T11:28:55;32.99;33.56
65470;DHT22;52067;50.710;14.492;2023-08-24T11:31:23;32.86;35.78
65470;DHT22;52067;50.710;14.492;2023-08-24T11:33:48;34.12;34.18
65470;DHT22;52067;50.710;14.492;2023-08-24T11:36:13;32.43;33.35
65470;DHT22;52067;50.710;14.492;2023-08-24T11:38:39;33.37;31.92
65470;DHT22;52067;50.710;14.492;2023-08-24T11:41:11;33.46;31.84
65470;DHT22;52067;50.710;14.492;2023-08-24T11:43:37;33.32;32.92
65470;DHT22;52067;50.710;14.492;2023-08-24T11:46:02;32.28;34.77
65470;DHT22;52067;50.710;14.492;2023-08-24T11:48:28;32.53;34.29
65470;DHT22;52067;50.710;14.492;2023-08-24T11:50:54;32.21;34.81
65470;DHT22;52067;50.710;14.492;2023-08-24T11:53:20;31.83;35.16
65470;DHT22;52067;50.710;14.492;2023-08-24T11:55:45;31.97;35.27
65470;DHT22;52067;50.710;14.492;2023-08-24T11:58:16;32.84;35.02
65470;DHT22;52067;50.710;14.492;2023-08-24T12:00:42;33.08;33.39
65470;DHT22;52067;50.710;14.492;2023-08-24T12:03:07;34.24;33.09
65470;DHT22;52067;50.710;14.492;2023-08-24T12:05:33;33.59;32.11
65470;DHT22;52067;50.710;14.492;2023-08-24T12:07:58;32.67;33.48
65470;DHT22;52067;50.710;14.492;2023-08-24T12:10:23;32.48;34.71
65470;DHT22;52067;50.710;14.492;2023-08-24T12:12:49;33.29;33.12
65470;DHT22;52067;50.710;14.492;2023-08-24T12:15:18;32.26;36.28
65470;DHT22;52067;50.710;14.492;2023-08-24T12:17:45;32.41;32.14
65470;DHT22;52067;50.710;14.492;2023-08-24T12:20:17;31.93;33.09
65470;DHT22;52067;50.710;14.492;2023-08-24T12:22:43;31.15;33.87
65470;DHT22;52067;50.710;14.492;2023-08-24T12:25:08;29.81;36.38
65470;DHT22;52067;50.710;14.492;2023-08-24T12:27:33;29.33;41.15
65470;DHT22;52067;50.710;14.492;2023-08-24T12:30:02;29.76;39.52
65470;DHT22;52067;50.710;14.492;2023-08-24T12:32:31;30.05;37.58
65470;DHT22;52067;50.710;14.492;2023-08-24T12:35:06;30.40;37.95
65470;DHT22;52067;50.710;14.492;2023-08-24T12:37:32;30.51;37.15
65470;DHT22;52067;50.710;14.492;2023-08-24T12:39:57;29.56;41.86
65470;DHT22;52067;50.710;14.492;2023-08-24T12:42:22;30.22;41.02
65470;DHT22;52067;50.710;14.492;2023-08-24T12:44:47;30.18;38.85
65470;DHT22;52067;50.710;14.492;2023-08-24T12:47:13;30.57;39.65
65470;DHT22;52067;50.710;14.492;2023-08-24T12:49:38;29.91;39.83
65470;DHT22;52067;50.710;14.492;2023-08-24T12:52:03;30.18;37.97
65470;DHT22;52067;50.710;14.492;2023-08-24T12:54:29;30.76;38.71
65470;DHT22;52067;50.710;14.492;2023-08-24T12:56:54;30.16;37.82
65470;DHT22;52067;50.710;14.492;2023-08-24T12:59:19;29.57;41.93
65470;DHT22;52067;50.710;14.492;2023-08-24T13:01:44;30.25;38.56
65470;DHT22;52067;50.710;14.492;2023-08-24T13:04:10;30.55;37.69
65470;DHT22;52067;50.710;14.492;2023-08-24T13:06:35;29.60;40.32
65470;DHT22;52067;50.710;14.492;2023-08-24T13:09:00;29.15;39.41
65470;DHT22;52067;50.710;14.492;2023-08-24T13:11:26;29.71;39.24
65470;DHT22;52067;50.710;14.492;2023-08-24T13:13:51;29.82;39.40
65470;DHT22;52067;50.710;14.492;2023-08-24T13:16:16;29.50;39.99
65470;DHT22;52067;50.710;14.492;2023-08-24T13:18:42;30.35;38.65
65470;DHT22;52067;50.710;14.492;2023-08-24T13:21:07;30.70;39.19
65470;DHT22;52067;50.710;14.492;2023-08-24T13:23:32;30.90;38.83
65470;DHT22;52067;50.710;14.492;2023-08-24T13:25:58;33.19;35.21
65470;DHT22;52067;50.710;14.492;2023-08-24T13:28:24;34.86;33.78
65470;DHT22;52067;50.710;14.492;2023-08-24T13:30:49;35.23;31.41
65470;DHT22;52067;50.710;14.492;2023-08-24T13:33:14;36.23;29.21
65470;DHT22;52067;50.710;14.492;2023-08-24T13:35:40;34.49;32.38
65470;DHT22;52067;50.710;14.492;2023-08-24T13:38:05;36.28;29.36
65470;DHT22;52067;50.710;14.492;2023-08-24T13:40:30;36.83;31.28
65470;DHT22;52067;50.710;14.492;2023-08-24T13:42:56;37.11;28.09
65470;DHT22;52067;50.710;14.492;2023-08-24T13:45:21;34.76;31.66
65470;DHT22;52067;50.710;14.492;2023-08-24T13:47:46;34.27;32.58
65470;DHT22;52067;50.710;14.492;2023-08-24T13:50:11;35.29;30.95
65470;DHT22;52067;50.710;14.492;2023-08-24T13:52:37;34.04;32.72
65470;DHT22;52067;50.710;14.492;2023-08-24T13:55:02;34.28;32.10
65470;DHT22;52067;50.710;14.492;2023-08-24T13:57:29;35.71;29.97
65470;DHT22;52067;50.710;14.492;2023-08-24T13:59:55;35.50;30.14
65470;DHT22;52067;50.710;14.492;2023-08-24T14:02:20;35.04;30.57
65470;DHT22;52067;50.710;14.492;2023-08-24T14:04:45;36.02;31.32
65470;DHT22;52067;50.710;14.492;2023-08-24T14:07:11;36.19;29.88
65470;DHT22;52067;50.710;14.492;2023-08-24T14:09:36;37.24;28.26
65470;DHT22;52067;50.710;14.492;2023-08-24T14:12:02;35.41;33.29
65470;DHT22;52067;50.710;14.492;2023-08-24T14:14:27;36.22;29.17
65470;DHT22;52067;50.710;14.492;2023-08-24T14:16:56;38.13;27.14
65470;DHT22;52067;50.710;14.492;2023-08-24T14:19:21;38.21;27.09
65470;DHT22;52067;50.710;14.492;2023-08-24T14:21:47;37.94;28.00
65470;DHT22;52067;50.710;14.492;2023-08-24T14:24:12;35.18;33.38
65470;DHT22;52067;50.710;14.492;2023-08-24T14:26:37;35.11;31.46
65470;DHT22;52067;50.710;14.492;2023-08-24T14:29:04;36.64;29.39
65470;DHT22;52067;50.710;14.492;2023-08-24T14:31:29;36.97;28.91
65470;DHT22;52067;50.710;14.492;2023-08-24T14:33:55;36.22;29.80
65470;DHT22;52067;50.710;14.492;2023-08-24T14:36:21;35.88;29.10
65470;DHT22;52067;50.710;14.492;2023-08-24T14:38:46;35.82;29.85
65470;DHT22;52067;50.710;14.492;2023-08-24T14:41:15;36.92;28.05
65470;DHT22;52067;50.710;14.492;2023-08-24T14:43:41;36.90;28.89
65470;DHT22;52067;50.710;14.492;2023-08-24T14:46:06;37.56;28.72
65470;DHT22;52067;50.710;14.492;2023-08-24T14:48:32;35.36;30.72
65470;DHT22;52067;50.710;14.492;2023-08-24T14:50:57;35.34;31.03
65470;DHT22;52067;50.710;14.492;2023-08-24T14:53:23;36.79;28.60
65470;DHT22;52067;50.710;14.492;2023-08-24T14:55:48;37.31;28.01
65470;DHT22;52067;50.710;14.492;2023-08-24T14:58:14;36.05;30.60
65470;DHT22;52067;50.710;14.492;2023-08-24T15:00:39;38.00;27.36
65470;DHT22;52067;50.710;14.492;2023-08-24T15:03:04;37.51;27.89
65470;DHT22;52067;50.710;14.492;2023-08-24T15:05:30;37.19;27.59
65470;DHT22;52067;50.710;14.492;2023-08-24T15:07:55;37.66;27.31
65470;DHT22;52067;50.710;14.492;2023-08-24T15:10:20;36.86;29.53
65470;DHT22;52067;50.710;14.492;2023-08-24T15:12:46;33.33;33.88
65470;DHT22;52067;50.710;14.492;2023-08-24T15:15:11;34.90;31.19